createdAt,value
2018-03-31T00:01:58.458Z,77.72
2018-03-31T00:04:25.973Z,77.89
2018-03-31T00:06:53.461Z,77.34
2018-03-31T00:09:20.977Z,77.35
2018-03-31T00:11:48.485Z,77.66
2018-03-31T00:14:16.091Z,77.22
2018-03-31T00:16:43.564Z,78.17
2018-03-31T00:19:12.640Z,77.31
2018-03-31T00:21:40.469Z,77.10
2018-03-31T00:24:07.935Z,77.44
2018-03-31T00:26:36.194Z,76.74
2018-03-31T00:29:03.679Z,77.40
2018-03-31T00:31:31.158Z,76.75
2018-03-31T00:33:58.652Z,77.61
2018-03-31T00:36:27.665Z,77.77
2018-03-31T00:38:55.160Z,77.37
2018-03-31T00:41:22.680Z,76.90
2018-03-31T00:43:50.524Z,76.63
2018-03-31T00:46:18.778Z,77.57
2018-03-31T00:48:46.352Z,76.81
2018-03-31T00:51:14.589Z,77.85
2018-03-31T00:53:42.341Z,77.55
2018-03-31T00:56:09.844Z,76.85
2018-03-31T00:58:37.332Z,76.59
2018-03-31T01:01:05.594Z,76.83
2018-03-31T01:03:33.889Z,76.94
2018-03-31T01:06:01.387Z,76.28
2018-03-31T01:08:28.878Z,76.93
2018-03-31T01:10:56.421Z,76.35
2018-03-31T01:13:23.890Z,76.64
2018-03-31T01:15:51.366Z,76.85
2018-03-31T01:18:19.848Z,76.24
2018-03-31T01:20:48.092Z,76.30
2018-03-31T01:23:15.573Z,77.11
2018-03-31T01:25:43.072Z,77.14
2018-03-31T01:28:10.795Z,77.02
2018-03-31T01:30:39.762Z,76.33
2018-03-31T01:33:07.253Z,76.64
2018-03-31T01:35:35.516Z,77.44
2018-03-31T01:38:03.032Z,77.23
2018-03-31T01:40:30.524Z,76.52
2018-03-31T01:42:58.016Z,77.17
2018-03-31T01:45:27.201Z,77.19
2018-03-31T01:47:56.269Z,77.23
2018-03-31T01:50:23.745Z,77.34
2018-03-31T01:52:51.570Z,77.45
2018-03-31T01:55:19.659Z,77.93
2018-03-31T01:57:47.149Z,77.11
2018-03-31T02:00:14.637Z,77.45
2018-03-31T02:02:43.663Z,77.74
2018-03-31T02:05:11.153Z,77.24
2018-03-31T02:07:38.635Z,77.64
2018-03-31T02:10:06.468Z,78.49
2018-03-31T02:12:33.950Z,78.77
2018-03-31T02:15:01.430Z,78.03
2018-03-31T02:17:29.716Z,78.03
2018-03-31T02:19:58.317Z,77.25
2018-03-31T02:22:25.825Z,77.31
2018-03-31T02:24:55.100Z,77.07
2018-03-31T02:27:23.596Z,77.95
2018-03-31T02:29:52.608Z,78.19
2018-03-31T02:32:21.093Z,78.05
2018-03-31T02:34:48.588Z,78.07
2018-03-31T02:37:16.070Z,77.64
2018-03-31T02:39:43.556Z,77.55
2018-03-31T02:42:11.057Z,77.11
2018-03-31T02:44:38.555Z,77.82
2018-03-31T02:47:06.922Z,77.92
2018-03-31T02:52:07.093Z,78.42
2018-03-31T02:54:34.580Z,78.42
2018-03-31T02:57:02.091Z,78.03
2018-03-31T02:59:29.599Z,78.27
2018-03-31T03:01:58.638Z,78.30
2018-03-31T03:04:26.213Z,78.26
2018-03-31T03:06:54.165Z,78.20
2018-03-31T03:09:21.752Z,78.04
2018-03-31T03:11:49.555Z,77.61
2018-03-31T03:14:17.914Z,77.59
2018-03-31T03:16:45.404Z,78.18
2018-03-31T03:19:14.324Z,78.91
2018-03-31T03:21:41.816Z,78.28
2018-03-31T03:24:09.688Z,78.30
2018-03-31T03:26:37.164Z,78.61
2018-03-31T03:29:04.656Z,78.61
2018-03-31T03:31:32.148Z,78.93
2018-03-31T03:34:00.458Z,79.14
2018-03-31T03:36:27.931Z,79.42
2018-03-31T03:38:57.092Z,78.89
2018-03-31T03:41:24.605Z,79.02
2018-03-31T03:43:52.862Z,79.48
2018-03-31T03:46:21.109Z,79.76
2018-03-31T03:48:48.873Z,79.22
2018-03-31T03:51:16.344Z,79.37
2018-03-31T03:53:44.747Z,79.04
2018-03-31T03:56:13.237Z,79.49
2018-03-31T03:58:41.487Z,79.05
2018-03-31T04:01:08.979Z,79.36
2018-03-31T04:03:37.546Z,78.71
2018-03-31T04:06:05.825Z,78.57
2018-03-31T04:08:34.368Z,78.45
2018-03-31T04:11:01.856Z,79.18
2018-03-31T04:13:30.213Z,78.79
2018-03-31T04:15:57.679Z,79.14
2018-03-31T04:18:25.800Z,78.43
2018-03-31T04:20:53.640Z,79.11
2018-03-31T04:23:21.123Z,78.90
2018-03-31T04:25:50.096Z,78.85
2018-03-31T04:28:17.596Z,78.31
2018-03-31T04:30:45.095Z,78.59
2018-03-31T04:33:12.578Z,78.95
2018-03-31T04:35:42.039Z,78.52
2018-03-31T04:38:10.050Z,78.09
2018-03-31T04:40:37.655Z,77.73
2018-03-31T04:43:05.484Z,77.92
2018-03-31T04:45:32.992Z,78.02
2018-03-31T04:48:00.512Z,79.17
2018-03-31T04:50:28.761Z,78.34
2018-03-31T04:52:57.228Z,78.51
2018-03-31T04:55:24.888Z,77.82
2018-03-31T04:57:52.689Z,78.18
2018-03-31T05:00:20.948Z,78.23
2018-03-31T05:02:48.885Z,78.88
2018-03-31T05:05:16.349Z,79.81
2018-03-31T05:07:44.169Z,78.79
2018-03-31T05:10:12.493Z,79.08
2018-03-31T05:12:40.002Z,78.31
2018-03-31T05:15:08.432Z,78.30
2018-03-31T05:17:35.900Z,78.53
2018-03-31T05:20:03.417Z,77.83
2018-03-31T05:22:31.820Z,78.40
2018-03-31T05:24:59.721Z,79.00
2018-03-31T05:27:27.247Z,79.11
2018-03-31T05:29:54.920Z,78.02
2018-03-31T05:32:22.400Z,77.52
2018-03-31T05:34:50.032Z,78.05
2018-03-31T05:37:17.624Z,78.31
2018-03-31T05:39:45.100Z,77.77
2018-03-31T05:42:12.610Z,78.06
2018-03-31T05:44:41.015Z,77.17
2018-03-31T05:47:08.488Z,77.27
2018-03-31T05:49:35.964Z,78.27
2018-03-31T05:52:04.321Z,78.37
2018-03-31T05:54:31.797Z,77.37
2018-03-31T05:57:00.103Z,76.73
2018-03-31T05:59:27.596Z,77.04
2018-03-31T06:01:55.880Z,77.29
2018-03-31T06:04:23.387Z,77.12
2018-03-31T06:06:53.319Z,76.81
2018-03-31T06:09:20.812Z,76.49
2018-03-31T06:11:48.315Z,76.99
2018-03-31T06:14:15.853Z,76.18
2018-03-31T06:16:43.504Z,76.01
2018-03-31T06:19:11.054Z,76.61
2018-03-31T06:21:38.527Z,76.48
2018-03-31T06:24:06.096Z,76.57
2018-03-31T06:26:34.540Z,77.20
2018-03-31T06:29:02.043Z,77.38
2018-03-31T06:31:31.767Z,76.34
2018-03-31T06:33:59.280Z,77.60
2018-03-31T06:36:26.844Z,76.50
2018-03-31T06:38:55.096Z,76.44
2018-03-31T06:41:22.580Z,75.15
2018-03-31T06:43:50.093Z,75.92
2018-03-31T06:46:18.351Z,75.69
2018-03-31T06:48:46.609Z,76.10
2018-03-31T06:51:14.312Z,74.98
2018-03-31T06:53:42.590Z,74.43
2018-03-31T06:56:11.637Z,75.08
2018-03-31T06:58:39.201Z,75.91
2018-03-31T07:01:06.675Z,75.84
2018-03-31T07:03:35.310Z,75.19
2018-03-31T07:06:03.716Z,75.69
2018-03-31T07:08:31.194Z,75.60
2018-03-31T07:10:59.556Z,73.73
2018-03-31T07:13:27.351Z,75.24
2018-03-31T07:15:54.828Z,75.80
2018-03-31T07:18:22.305Z,74.75
2018-03-31T07:20:50.564Z,74.83
2018-03-31T07:23:18.057Z,73.69
2018-03-31T07:25:45.640Z,73.63
2018-03-31T07:28:13.129Z,74.57
2018-03-31T07:30:41.178Z,75.39
2018-03-31T07:33:08.708Z,74.47
2018-03-31T07:35:36.177Z,72.72
2018-03-31T07:38:03.673Z,73.32
2018-03-31T07:40:31.194Z,73.94
2018-03-31T07:42:58.960Z,74.20
2018-03-31T07:45:26.458Z,73.15
2018-03-31T07:47:54.096Z,72.81
2018-03-31T07:50:21.559Z,72.24
2018-03-31T07:52:49.558Z,72.83
2018-03-31T07:55:17.217Z,72.27
2018-03-31T07:57:44.707Z,73.20
2018-03-31T08:00:14.101Z,73.11
2018-03-31T08:02:42.532Z,71.94
2018-03-31T08:05:10.819Z,71.79
2018-03-31T08:10:06.700Z,71.80
2018-03-31T08:12:35.092Z,71.97
2018-03-31T08:15:03.875Z,72.35
2018-03-31T08:17:32.197Z,70.46
2018-03-31T08:19:59.673Z,71.81
2018-03-31T08:22:27.156Z,72.51
2018-03-31T08:24:54.686Z,72.08
2018-03-31T08:27:23.804Z,70.04
2018-03-31T08:29:51.275Z,71.19
2018-03-31T08:32:19.617Z,70.09
2018-03-31T08:34:47.275Z,70.79
2018-03-31T08:37:14.836Z,70.40
2018-03-31T08:39:42.309Z,69.72
2018-03-31T08:42:10.118Z,69.99
2018-03-31T08:44:38.876Z,71.22
2018-03-31T08:47:06.389Z,70.47
2018-03-31T08:49:35.092Z,71.00
2018-03-31T08:52:02.573Z,69.99
2018-03-31T08:54:30.085Z,68.86
2018-03-31T08:56:58.389Z,69.75
2018-03-31T08:59:25.878Z,68.71
2018-03-31T09:01:54.221Z,68.56
2018-03-31T09:04:21.714Z,68.30
2018-03-31T09:06:49.306Z,69.53
2018-03-31T09:09:18.481Z,71.60
2018-03-31T09:11:46.008Z,70.00
2018-03-31T09:14:17.505Z,69.59
2018-03-31T09:16:44.992Z,69.81
2018-03-31T09:19:12.640Z,70.43
2018-03-31T09:21:41.927Z,70.62
2018-03-31T09:24:09.756Z,70.93
2018-03-31T09:26:37.912Z,73.02
2018-03-31T09:29:05.387Z,72.98
2018-03-31T09:31:32.899Z,74.25
2018-03-31T09:34:01.137Z,75.88
2018-03-31T09:36:28.762Z,74.35
2018-03-31T09:38:56.764Z,76.09
2018-03-31T09:41:24.813Z,76.90
2018-03-31T09:43:52.660Z,77.56
2018-03-31T09:46:21.704Z,78.59
2018-03-31T09:48:49.200Z,78.76
2018-03-31T09:51:17.464Z,78.25
2018-03-31T09:53:44.979Z,78.35
2018-03-31T09:56:12.468Z,77.45
2018-03-31T09:58:39.991Z,76.46
2018-03-31T10:01:07.780Z,79.24
2018-03-31T10:03:35.276Z,79.27
2018-03-31T10:06:02.833Z,77.46
2018-03-31T10:08:30.571Z,77.54
2018-03-31T10:10:58.055Z,77.30
2018-03-31T10:13:25.544Z,78.33
2018-03-31T10:15:54.131Z,78.28
2018-03-31T10:18:21.629Z,78.73
2018-03-31T10:20:49.124Z,77.91
2018-03-31T10:23:17.399Z,78.37
2018-03-31T10:25:45.870Z,78.30
2018-03-31T10:28:14.571Z,79.80
2018-03-31T10:30:42.913Z,81.06
2018-03-31T10:33:10.411Z,79.71
2018-03-31T10:35:38.755Z,78.30
2018-03-31T10:38:06.237Z,79.26
2018-03-31T10:40:33.779Z,78.80
2018-03-31T10:43:01.266Z,78.26
2018-03-31T10:45:28.775Z,79.46
2018-03-31T10:47:56.356Z,80.78
2018-03-31T10:50:24.268Z,80.81
2018-03-31T10:52:52.553Z,80.92
2018-03-31T10:55:20.805Z,82.69
2018-03-31T10:57:48.629Z,81.43
2018-03-31T11:00:16.544Z,81.18
2018-03-31T11:02:44.021Z,80.90
2018-03-31T11:05:13.004Z,81.56
2018-03-31T11:07:41.337Z,79.59
2018-03-31T11:10:09.679Z,79.56
2018-03-31T11:12:38.000Z,77.98
2018-03-31T11:15:06.021Z,77.99
2018-03-31T11:17:34.720Z,79.22
2018-03-31T11:20:02.228Z,78.54
2018-03-31T11:22:29.708Z,80.25
2018-03-31T11:24:57.189Z,78.34
2018-03-31T11:27:25.509Z,78.23
2018-03-31T11:29:52.988Z,78.58
2018-03-31T11:32:20.576Z,78.61
2018-03-31T11:34:48.040Z,78.55
2018-03-31T11:37:16.279Z,77.30
2018-03-31T11:39:43.815Z,77.69
2018-03-31T11:42:12.184Z,76.85
2018-03-31T11:44:39.704Z,76.05
2018-03-31T11:47:07.309Z,77.97
2018-03-31T11:49:34.978Z,78.25
2018-03-31T11:52:02.478Z,76.95
2018-03-31T11:54:29.960Z,76.92
2018-03-31T11:56:58.264Z,76.96
2018-03-31T11:59:25.754Z,77.79
2018-03-31T12:01:53.844Z,78.87
2018-03-31T12:04:21.688Z,77.36
2018-03-31T12:06:50.108Z,77.13
2018-03-31T12:09:17.610Z,76.21
2018-03-31T12:11:45.128Z,77.59
2018-03-31T12:14:12.628Z,75.97
2018-03-31T12:16:41.043Z,76.23
2018-03-31T12:19:08.544Z,76.67
2018-03-31T12:21:37.435Z,75.09
2018-03-31T12:24:05.705Z,74.91
2018-03-31T12:26:34.057Z,75.12
2018-03-31T12:29:01.540Z,75.97
2018-03-31T12:31:29.828Z,77.18
2018-03-31T12:33:58.824Z,76.88
2018-03-31T12:36:26.312Z,78.34
2018-03-31T12:38:54.174Z,77.73
2018-03-31T12:41:21.667Z,76.92
2018-03-31T12:43:49.216Z,77.71
2018-03-31T12:46:16.971Z,77.64
2018-03-31T12:48:44.443Z,78.30
2018-03-31T12:51:11.930Z,78.77
2018-03-31T12:53:40.281Z,77.83
2018-03-31T12:56:07.771Z,78.40
2018-03-31T12:58:35.235Z,78.84
2018-03-31T13:01:03.493Z,79.34
2018-03-31T13:03:30.981Z,78.07
2018-03-31T13:05:59.977Z,78.74
2018-03-31T13:08:28.215Z,79.17
2018-03-31T13:10:55.698Z,78.16
2018-03-31T13:13:23.236Z,78.29
2018-03-31T13:15:50.758Z,78.60
2018-03-31T13:18:18.236Z,79.73
2018-03-31T13:20:45.724Z,78.68
2018-03-31T13:23:13.260Z,81.12
2018-03-31T13:25:40.764Z,81.87
2018-03-31T13:28:09.009Z,81.63
2018-03-31T13:30:36.536Z,81.64
2018-03-31T13:33:04.044Z,80.90
2018-03-31T13:35:31.536Z,81.42
2018-03-31T13:38:00.061Z,80.31
2018-03-31T13:40:27.543Z,82.56
2018-03-31T13:42:55.020Z,81.92
2018-03-31T13:45:23.435Z,82.00
2018-03-31T13:47:51.008Z,81.50
2018-03-31T13:50:18.495Z,81.92
2018-03-31T13:52:45.989Z,82.25
2018-03-31T13:55:14.261Z,81.36
2018-03-31T13:57:42.520Z,82.71
2018-03-31T14:00:10.040Z,82.29
2018-03-31T14:02:37.634Z,82.86
2018-03-31T14:05:05.104Z,82.36
2018-03-31T14:07:33.440Z,82.72
2018-03-31T14:10:01.609Z,82.10
2018-03-31T14:12:29.043Z,82.06
2018-03-31T14:14:56.524Z,82.87
2018-03-31T14:17:24.056Z,83.43
2018-03-31T14:19:52.303Z,83.42
2018-03-31T14:22:19.796Z,82.91
2018-03-31T14:24:47.492Z,84.60
2018-03-31T14:27:14.978Z,82.92
2018-03-31T14:29:42.460Z,84.42
2018-03-31T14:32:11.008Z,83.82
2018-03-31T14:34:38.544Z,84.79
2018-03-31T14:37:06.246Z,85.17
2018-03-31T14:39:33.723Z,85.09
2018-03-31T14:42:01.224Z,85.20
2018-03-31T14:44:28.800Z,84.55
2018-03-31T14:46:56.393Z,84.81
2018-03-31T14:49:23.869Z,84.92
2018-03-31T14:51:52.940Z,84.87
2018-03-31T14:54:20.452Z,84.27
2018-03-31T14:56:47.964Z,85.15
2018-03-31T14:59:15.470Z,85.68
2018-03-31T15:01:43.164Z,86.35
2018-03-31T15:04:11.440Z,87.11
2018-03-31T15:06:38.979Z,86.69
2018-03-31T15:09:06.648Z,86.62
2018-03-31T15:11:34.132Z,86.52
2018-03-31T15:14:01.674Z,86.93
2018-03-31T15:16:29.959Z,87.17
2018-03-31T15:18:57.440Z,87.67
2018-03-31T15:21:24.936Z,87.90
2018-03-31T15:23:53.234Z,87.72
2018-03-31T15:26:20.778Z,88.05
2018-03-31T15:28:49.050Z,88.32
2018-03-31T15:31:17.297Z,88.20
2018-03-31T15:33:44.943Z,88.15
2018-03-31T15:36:15.209Z,88.44
2018-03-31T15:38:43.844Z,88.57
2018-03-31T15:41:11.329Z,89.22
2018-03-31T15:43:38.814Z,89.33
2018-03-31T15:46:07.080Z,89.52
2018-03-31T15:48:35.342Z,89.73
2018-03-31T15:51:02.833Z,89.75
2018-03-31T15:53:31.308Z,89.79
2018-03-31T15:55:59.659Z,90.13
2018-03-31T15:58:27.330Z,90.28
2018-03-31T16:00:54.820Z,90.41
2018-03-31T16:03:23.780Z,90.69
2018-03-31T16:05:51.308Z,91.12
2018-03-31T16:08:19.014Z,90.69
2018-03-31T16:10:46.521Z,90.47
2018-03-31T16:13:14.309Z,90.74
2018-03-31T16:15:42.689Z,90.64
2018-03-31T16:18:10.176Z,90.40
2018-03-31T16:20:37.669Z,90.88
2018-03-31T16:23:05.140Z,91.14
2018-03-31T16:25:33.020Z,91.21
2018-03-31T16:28:00.535Z,90.81
2018-03-31T16:30:29.490Z,91.12
2018-03-31T16:32:57.335Z,91.57
2018-03-31T16:35:24.921Z,91.75
2018-03-31T16:37:52.409Z,91.19
2018-03-31T16:40:20.125Z,91.48
2018-03-31T16:42:47.604Z,91.38
2018-03-31T16:45:15.123Z,91.57
2018-03-31T16:47:42.702Z,91.40
2018-03-31T16:50:10.900Z,91.41
2018-03-31T16:52:38.404Z,91.27
2018-03-31T16:55:07.789Z,91.52
2018-03-31T16:57:35.263Z,91.48
2018-03-31T17:00:03.557Z,91.88
2018-03-31T17:02:31.160Z,92.23
2018-03-31T17:04:59.527Z,92.15
2018-03-31T17:07:27.088Z,92.30
2018-03-31T17:09:55.082Z,92.42
2018-03-31T17:12:22.561Z,92.12
2018-03-31T17:14:51.273Z,92.02
2018-03-31T17:17:18.813Z,92.25
2018-03-31T17:19:47.081Z,92.00
2018-03-31T17:22:14.576Z,91.65
2018-03-31T17:24:42.664Z,91.65
2018-03-31T17:27:10.736Z,91.60
2018-03-31T17:29:38.643Z,91.87
2018-03-31T17:32:07.068Z,91.67
2018-03-31T17:34:35.050Z,91.65
2018-03-31T17:37:02.632Z,91.97
2018-03-31T17:39:30.174Z,92.29
2018-03-31T17:41:58.487Z,92.24
2018-03-31T17:44:25.986Z,92.01
2018-03-31T17:46:54.261Z,92.32
2018-03-31T17:49:23.381Z,92.59
2018-03-31T17:51:50.868Z,92.63
2018-03-31T17:54:18.937Z,92.65
2018-03-31T17:56:47.225Z,92.68
2018-03-31T17:59:14.712Z,92.21
2018-03-31T18:01:43.784Z,92.35
2018-03-31T18:04:11.268Z,92.49
2018-03-31T18:06:38.781Z,92.33
2018-03-31T18:09:06.349Z,92.36
2018-03-31T18:11:34.624Z,92.01
2018-03-31T18:14:03.120Z,92.41
2018-03-31T18:16:31.863Z,92.18
2018-03-31T18:19:00.655Z,92.10
2018-03-31T18:21:28.140Z,92.06
2018-03-31T18:23:57.741Z,91.95
2018-03-31T18:26:25.272Z,92.44
2018-03-31T18:28:53.958Z,92.35
2018-03-31T18:31:21.646Z,92.32
2018-03-31T18:33:49.330Z,92.46
2018-03-31T18:36:16.836Z,92.48
2018-03-31T18:38:45.570Z,92.07
2018-03-31T18:41:13.087Z,92.29
2018-03-31T18:43:41.341Z,92.58
2018-03-31T18:46:09.697Z,92.44
2018-03-31T18:48:37.970Z,92.35
2018-03-31T18:51:05.495Z,92.78
2018-03-31T18:53:32.978Z,92.55
2018-03-31T18:56:00.485Z,92.49
2018-03-31T18:58:29.158Z,92.31
2018-03-31T19:00:56.859Z,92.23
2018-03-31T19:03:25.121Z,92.56
2018-03-31T19:05:53.074Z,92.51
2018-03-31T19:08:20.572Z,92.58
2018-03-31T19:10:48.090Z,92.60
2018-03-31T19:13:16.447Z,92.41
2018-03-31T19:15:43.953Z,92.32
2018-03-31T19:18:12.220Z,92.46
2018-03-31T19:20:39.705Z,92.71
2018-03-31T19:23:07.222Z,92.71
2018-03-31T19:25:35.731Z,92.72
2018-03-31T19:28:03.981Z,92.39
2018-03-31T19:30:37.005Z,92.59
2018-03-31T19:33:05.467Z,92.45
2018-03-31T19:35:38.469Z,92.88
2018-03-31T19:38:07.144Z,92.34
2018-03-31T19:40:34.940Z,92.67
2018-03-31T19:43:02.520Z,92.50
2018-03-31T19:45:30.017Z,92.39
2018-03-31T19:47:57.493Z,92.13
2018-03-31T19:50:25.828Z,93.11
2018-03-31T19:52:53.404Z,92.97
2018-03-31T19:55:20.880Z,92.97
2018-03-31T19:57:48.445Z,93.05
2018-03-31T20:00:15.964Z,92.50
2018-03-31T20:02:43.857Z,92.63
2018-03-31T20:05:12.528Z,92.74
2018-03-31T20:07:40.155Z,92.78
2018-03-31T20:10:08.152Z,92.71
2018-03-31T20:12:36.540Z,92.77
2018-03-31T20:15:04.106Z,92.21
2018-03-31T20:17:31.941Z,92.05
2018-03-31T20:19:59.527Z,92.21
2018-03-31T20:22:27.844Z,92.46
2018-03-31T20:24:55.351Z,92.24
2018-03-31T20:27:22.844Z,92.19
2018-03-31T20:29:50.400Z,92.43
2018-03-31T20:32:18.813Z,92.25
2018-03-31T20:34:47.115Z,92.70
2018-03-31T20:37:15.315Z,92.69
2018-03-31T20:39:43.656Z,92.57
2018-03-31T20:42:11.920Z,92.18
2018-03-31T20:44:40.826Z,92.54
2018-03-31T20:47:09.152Z,92.28
2018-03-31T20:49:36.634Z,91.89
2018-03-31T20:52:05.104Z,91.83
2018-03-31T20:54:32.615Z,91.44
2018-03-31T20:57:00.097Z,91.90
2018-03-31T20:59:27.572Z,92.34
2018-03-31T21:01:55.148Z,92.25
2018-03-31T21:04:22.770Z,91.87
2018-03-31T21:06:52.168Z,91.47
2018-03-31T21:09:19.694Z,91.67
2018-03-31T21:11:47.175Z,91.25
2018-03-31T21:14:14.658Z,91.70
2018-03-31T21:16:42.158Z,91.33
2018-03-31T21:19:09.727Z,91.04
2018-03-31T21:21:37.292Z,90.92
2018-03-31T21:24:04.799Z,90.90
2018-03-31T21:26:32.737Z,90.84
2018-03-31T21:29:00.599Z,90.92
2018-03-31T21:31:28.845Z,91.03
2018-03-31T21:33:56.340Z,90.91
2018-03-31T21:36:25.504Z,91.36
2018-03-31T21:38:53.000Z,90.73
2018-03-31T21:41:21.277Z,90.73
2018-03-31T21:43:49.552Z,91.14
2018-03-31T21:46:17.833Z,91.15
2018-03-31T21:48:46.858Z,90.61
2018-03-31T21:51:14.339Z,90.38
2018-03-31T21:53:41.839Z,90.07
2018-03-31T21:56:10.117Z,90.15
2018-03-31T21:58:37.632Z,90.26
2018-03-31T22:01:05.319Z,90.70
2018-03-31T22:03:33.642Z,90.67
2018-03-31T22:06:01.142Z,90.65
2018-03-31T22:08:28.642Z,90.59
2018-03-31T22:10:56.915Z,90.56
2018-03-31T22:13:33.611Z,90.51
2018-03-31T22:16:02.152Z,90.33
2018-03-31T22:18:29.652Z,90.56
2018-03-31T22:20:57.129Z,90.58
2018-03-31T22:23:24.645Z,90.45
2018-03-31T22:25:52.494Z,90.34
2018-03-31T22:28:19.990Z,90.41
2018-03-31T22:30:47.474Z,90.38
2018-03-31T22:33:14.958Z,90.66
2018-03-31T22:35:42.492Z,90.53
2018-03-31T22:38:10.589Z,90.61
2018-03-31T22:40:38.094Z,90.72
2018-03-31T22:43:06.365Z,90.81
2018-03-31T22:45:35.532Z,90.70
2018-03-31T22:48:03.290Z,90.81
2018-03-31T22:50:30.852Z,90.75
2018-03-31T22:52:58.341Z,91.05
2018-03-31T22:55:26.053Z,90.77
2018-03-31T22:57:53.552Z,90.57
2018-03-31T23:00:21.041Z,90.70
2018-03-31T23:02:49.368Z,90.37
2018-03-31T23:05:17.166Z,90.43
2018-03-31T23:07:44.651Z,90.60
2018-03-31T23:10:12.158Z,90.74
2018-03-31T23:12:39.683Z,90.52
2018-03-31T23:15:07.422Z,90.66
2018-03-31T23:17:35.790Z,90.63
2018-03-31T23:20:03.436Z,90.68
2018-03-31T23:22:30.930Z,90.79
2018-03-31T23:25:00.083Z,90.82
2018-03-31T23:27:27.628Z,90.49
2018-03-31T23:29:55.131Z,90.53
2018-03-31T23:32:23.368Z,90.34
2018-03-31T23:34:51.440Z,90.50
2018-03-31T23:37:19.510Z,90.50
2018-03-31T23:39:47.017Z,90.75
2018-03-31T23:42:15.290Z,90.63
2018-03-31T23:44:42.772Z,90.60
2018-03-31T23:47:10.316Z,90.50
2018-03-31T23:49:38.560Z,90.49
2018-03-31T23:52:06.060Z,90.48
2018-03-31T23:54:34.380Z,90.83
2018-03-31T23:57:01.964Z,90.74
2018-03-31T23:59:29.594Z,90.55
